In Rescue
 
Open Full Screen Window  High Contrast Mode
Wind Gusting 00 knots
03
October 19, 2020 8:54 PM EDT
Present Weather: Rain
Weather Information
Wind Direction
  040 °
Wind Speed
  03 kt (3 mph)
Wind Gust
  00 kt (0 mph)
Altimeter
30.19 in
Visibility
10 SM
Temperature
05° C
41° F
Dewpoint
04° C
39° F
Humidity
93%
Sky Condition
Overcast @ 3,700 ft
VFR

METAR KOEB 200054Z AUTO 04003KT 10SM RA OVC037 05/04 A3019 RMK AO2 T00500035

FAA Disclaimer: The data displayed is for advisory purposes only and is not to be used for flight planning or operations.